Time;durP1;ratioP1;P1;durP2;ratioP2;P2;SDS_P1;SDS_P2;PMS_P1;PMS_P2;Temp;Humidity;BMP_temperature;BMP_pressure;BME280_temperature;BME280_humidity;BME280_pressure;Samples;Min_cycle;Max_cycle;Signal;HPM_P1;HPM_P2
2021/08/11 00:00:13;;;;;;;2.05;1.85;;;21.40;73.20;;;;;;5090691;28;20121;-50
2021/08/11 00:02:39;;;;;;;3.05;2.42;;;21.40;73.20;;;;;;5091449;28;20136;-47
2021/08/11 00:05:05;;;;;;;2.40;2.00;;;21.40;73.20;;;;;;5091418;28;20043;-48
2021/08/11 00:07:31;;;;;;;2.35;2.10;;;21.40;73.20;;;;;;5091297;28;20079;-47
2021/08/11 00:09:56;;;;;;;2.53;2.10;;;21.40;73.20;;;;;;5090258;28;20491;-47
2021/08/11 00:12:22;;;;;;;2.67;2.00;;;21.40;73.20;;;;;;5090916;28;20040;-46
2021/08/11 00:14:50;;;;;;;2.00;1.80;;;21.40;73.20;;;;;;5090315;28;20044;-46
2021/08/11 00:17:16;;;;;;;2.75;2.42;;;21.30;73.20;;;;;;5091112;28;20127;-49
2021/08/11 00:19:42;;;;;;;2.80;2.10;;;21.30;73.20;;;;;;5090790;28;20139;-45
2021/08/11 00:22:08;;;;;;;2.28;2.00;;;21.30;73.20;;;;;;5091269;28;20040;-47
2021/08/11 00:24:33;;;;;;;2.38;1.90;;;21.30;73.20;;;;;;5088188;28;20040;-46
2021/08/11 00:27:00;;;;;;;2.42;2.22;;;21.40;73.20;;;;;;5090723;28;20051;-51
2021/08/11 00:29:26;;;;;;;2.30;2.00;;;21.30;73.20;;;;;;5090657;28;20152;-46
2021/08/11 00:31:51;;;;;;;2.63;2.42;;;21.30;73.20;;;;;;5090691;28;20523;-46
2021/08/11 00:34:17;;;;;;;2.50;2.30;;;21.30;73.20;;;;;;5092699;28;20447;-45
2021/08/11 00:36:43;;;;;;;2.88;2.60;;;21.30;73.20;;;;;;5094488;28;20054;-46
2021/08/11 00:39:09;;;;;;;2.65;2.40;;;21.30;73.30;;;;;;5095084;28;20410;-47
2021/08/11 00:41:35;;;;;;;3.13;1.80;;;21.40;73.30;;;;;;5095075;28;20051;-46
2021/08/11 00:44:00;;;;;;;2.50;2.20;;;21.30;73.30;;;;;;5094646;28;20089;-44
2021/08/11 00:46:26;;;;;;;2.60;2.30;;;21.30;73.30;;;;;;5094772;28;20052;-44
2021/08/11 00:48:52;;;;;;;2.35;2.15;;;21.30;73.30;;;;;;5093009;28;20055;-46
2021/08/11 00:51:18;;;;;;;2.80;2.50;;;21.30;73.30;;;;;;5094456;28;20230;-51
2021/08/11 00:53:47;;;;;;;2.40;2.20;;;21.30;73.30;;;;;;5094367;28;20165;-49
2021/08/11 00:56:16;;;;;;;2.67;2.30;;;21.30;73.90;;;;;;5094180;28;20040;-44
2021/08/11 00:58:43;;;;;;;2.47;2.13;;;21.30;73.40;;;;;;5094356;28;20044;-47
2021/08/11 01:01:10;;;;;;;2.70;2.20;;;21.30;73.30;;;;;;5093901;28;20056;-51
2021/08/11 01:03:37;;;;;;;2.60;2.13;;;21.30;73.30;;;;;;5094113;28;20039;-54
2021/08/11 01:06:05;;;;;;;2.33;2.13;;;21.30;73.40;;;;;;5094184;28;20097;-48
2021/08/11 01:08:32;;;;;;;2.30;2.03;;;21.30;73.30;;;;;;5094005;28;20420;-48
2021/08/11 01:10:58;;;;;;;3.10;1.90;;;21.30;73.30;;;;;;5093922;28;20060;-51
2021/08/11 01:13:25;;;;;;;2.38;2.05;;;21.30;73.30;;;;;;5093652;28;20557;-45
2021/08/11 01:15:51;;;;;;;2.30;2.10;;;21.30;73.30;;;;;;5093439;28;20159;-47
2021/08/11 01:18:18;;;;;;;2.38;2.13;;;21.30;73.40;;;;;;5094282;28;20085;-50
2021/08/11 01:20:59;;;;;;;1.98;1.80;;;21.30;73.30;;;;;;5093767;28;20075;-47
2021/08/11 01:23:29;;;;;;;2.38;2.08;;;21.30;73.30;;;;;;5092397;28;20044;-50
2021/08/11 01:26:19;;;;;;;2.28;2.08;;;21.30;73.30;;;;;;5092376;28;20415;-49
2021/08/11 01:29:07;;;;;;;2.30;2.10;;;21.30;73.30;;;;;;5092320;28;20066;-48
2021/08/11 01:31:58;;;;;;;3.20;2.53;;;21.30;73.30;;;;;;5093201;28;20047;-49
2021/08/11 01:34:45;;;;;;;2.20;1.90;;;21.30;73.30;;;;;;5088073;28;20040;-49
2021/08/11 01:37:21;;;;;;;3.70;2.35;;;21.30;73.30;;;;;;5093278;28;20063;-53
2021/08/11 01:39:50;;;;;;;2.45;2.00;;;21.30;73.40;;;;;;5093734;28;20044;-48
2021/08/11 01:42:29;;;;;;;2.72;2.33;;;21.20;73.30;;;;;;5090952;28;20051;-48
2021/08/11 01:45:05;;;;;;;2.75;2.30;;;21.30;73.40;;;;;;5090135;28;20457;-45
2021/08/11 01:47:49;;;;;;;2.85;2.53;;;21.20;73.40;;;;;;5093086;28;20563;-49
2021/08/11 01:50:18;;;;;;;2.40;2.20;;;21.30;73.40;;;;;;5091263;28;20044;-52
2021/08/11 01:52:47;;;;;;;2.35;2.05;;;21.20;73.30;;;;;;5093331;28;20036;-50
2021/08/11 01:55:13;;;;;;;2.65;2.35;;;21.20;73.40;;;;;;5092536;28;20047;-50
2021/08/11 01:57:47;;;;;;;2.45;2.25;;;21.30;73.40;;;;;;5093492;28;20051;-49
2021/08/11 02:00:14;;;;;;;3.17;2.40;;;21.20;73.30;;;;;;5093393;28;20098;-50
2021/08/11 02:02:40;;;;;;;2.75;2.20;;;21.20;73.30;;;;;;5092781;28;20040;-47
2021/08/11 02:05:09;;;;;;;2.90;2.20;;;21.30;73.40;;;;;;5092922;28;20051;-46
2021/08/11 02:07:35;;;;;;;3.22;2.38;;;21.30;73.40;;;;;;5093110;28;20060;-50
2021/08/11 02:10:04;;;;;;;2.40;2.20;;;21.20;73.30;;;;;;5093075;28;20043;-50
2021/08/11 02:12:30;;;;;;;2.50;2.00;;;21.20;73.30;;;;;;5093317;28;20040;-50
2021/08/11 02:14:57;;;;;;;2.70;2.15;;;21.20;73.30;;;;;;5091412;28;20123;-48
2021/08/11 02:17:24;;;;;;;2.13;1.90;;;21.20;73.40;;;;;;5093134;28;20056;-46
2021/08/11 02:19:50;;;;;;;2.25;2.05;;;21.30;73.40;;;;;;5092493;28;20130;-49
2021/08/11 02:22:16;;;;;;;2.67;2.38;;;21.20;73.40;;;;;;5093170;28;20075;-47
2021/08/11 02:24:42;;;;;;;2.53;1.98;;;21.20;73.40;;;;;;5092728;28;20079;-47
2021/08/11 02:27:14;;;;;;;2.38;2.15;;;21.20;73.30;;;;;;5092651;28;20064;-49
2021/08/11 02:30:08;;;;;;;2.30;2.10;;;21.20;73.30;;;;;;5090564;28;20070;-48
2021/08/11 02:32:36;;;;;;;2.05;1.88;;;21.20;73.30;;;;;;5091996;28;20072;-50
2021/08/11 02:35:26;;;;;;;2.92;1.92;;;21.20;73.40;;;;;;5090101;28;20056;-45
2021/08/11 02:38:09;;;;;;;2.70;2.10;;;21.20;73.30;;;;;;5092058;28;20040;-46
2021/08/11 02:40:36;;;;;;;2.30;2.00;;;21.20;73.30;;;;;;5089729;28;20426;-47
2021/08/11 02:43:23;;;;;;;4.15;2.40;;;21.10;73.30;;;;;;5092733;28;20155;-46
2021/08/11 02:45:57;;;;;;;3.03;2.20;;;21.20;73.30;;;;;;5090902;28;20789;-46
2021/08/11 02:48:26;;;;;;;2.78;2.10;;;21.20;73.30;;;;;;5090641;28;20044;-44
2021/08/11 02:50:52;;;;;;;2.40;2.20;;;21.20;73.40;;;;;;5092062;28;20040;-49
2021/08/11 02:53:22;;;;;;;2.30;2.10;;;21.10;73.30;;;;;;5092322;28;20400;-49
2021/08/11 02:55:48;;;;;;;2.75;2.30;;;21.20;73.40;;;;;;5091133;28;20373;-47
2021/08/11 02:58:17;;;;;;;2.17;1.98;;;21.20;73.40;;;;;;5091601;28;20059;-46
2021/08/11 03:00:42;;;;;;;2.72;2.45;;;21.20;73.40;;;;;;5091735;28;20039;-46
2021/08/11 03:03:09;;;;;;;2.20;2.00;;;21.10;73.30;;;;;;5092275;28;20648;-47
2021/08/11 03:05:35;;;;;;;2.40;2.10;;;21.20;73.40;;;;;;5089217;28;20040;-47
2021/08/11 03:08:02;;;;;;;2.35;2.15;;;21.20;73.40;;;;;;5091530;28;20058;-46
2021/08/11 03:10:28;;;;;;;2.28;2.00;;;21.10;73.30;;;;;;5091216;28;20070;-49
2021/08/11 03:12:55;;;;;;;2.40;2.20;;;21.20;73.40;;;;;;5091581;28;20036;-47
2021/08/11 03:15:22;;;;;;;2.53;2.22;;;21.20;73.40;;;;;;5091682;28;20154;-49
2021/08/11 03:17:48;;;;;;;2.35;1.90;;;21.20;73.40;;;;;;5091356;28;20370;-50
2021/08/11 03:20:14;;;;;;;2.58;2.10;;;21.20;73.40;;;;;;5088358;28;20118;-48
2021/08/11 03:22:40;;;;;;;2.10;1.90;;;21.20;73.40;;;;;;5090049;28;20044;-50
2021/08/11 03:25:06;;;;;;;2.38;2.13;;;21.20;73.40;;;;;;5091444;28;20052;-49
2021/08/11 03:27:32;;;;;;;2.20;2.00;;;21.10;73.40;;;;;;5091038;28;20043;-49
2021/08/11 03:29:58;;;;;;;2.40;2.17;;;21.20;73.40;;;;;;5090956;28;20151;-48
2021/08/11 03:32:23;;;;;;;2.42;2.10;;;21.20;73.40;;;;;;5090786;28;20047;-44
2021/08/11 03:34:49;;;;;;;2.53;2.17;;;21.20;73.40;;;;;;5091346;28;20060;-49
2021/08/11 03:37:16;;;;;;;2.05;1.77;;;21.10;73.40;;;;;;5088144;28;20105;-48
2021/08/11 03:39:43;;;;;;;2.20;2.00;;;21.10;73.40;;;;;;5090877;28;20044;-48
2021/08/11 03:42:09;;;;;;;2.90;2.22;;;21.10;73.40;;;;;;5091013;28;20167;-44
2021/08/11 03:44:35;;;;;;;2.20;1.88;;;21.10;73.40;;;;;;5090830;28;20081;-47
2021/08/11 03:47:01;;;;;;;2.28;2.08;;;21.10;73.40;;;;;;5090882;28;20480;-49
2021/08/11 03:49:27;;;;;;;2.30;2.00;;;21.10;73.40;;;;;;5091161;28;20128;-49
2021/08/11 03:51:53;;;;;;;2.08;1.80;;;21.10;73.40;;;;;;5091136;28;20040;-46
2021/08/11 03:54:19;;;;;;;2.25;1.88;;;21.10;73.40;;;;;;5090867;28;20093;-49
2021/08/11 03:56:45;;;;;;;2.10;1.90;;;21.10;73.40;;;;;;5090731;28;20440;-49
2021/08/11 03:59:10;;;;;;;2.40;2.20;;;21.10;73.40;;;;;;5090459;28;20063;-49
2021/08/11 04:01:36;;;;;;;2.45;1.80;;;21.10;73.40;;;;;;5089842;28;20040;-49
2021/08/11 04:04:02;;;;;;;2.70;2.10;;;21.10;73.40;;;;;;5089696;28;20093;-50
2021/08/11 04:06:27;;;;;;;2.45;2.25;;;21.10;73.40;;;;;;5090847;28;20076;-48
2021/08/11 04:08:53;;;;;;;2.05;1.70;;;21.10;73.40;;;;;;5093492;28;20044;-46
2021/08/11 04:11:19;;;;;;;2.22;2.00;;;21.10;73.40;;;;;;5095076;28;20078;-45
2021/08/11 04:13:44;;;;;;;2.40;2.00;;;21.10;73.50;;;;;;5095043;28;20048;-46
2021/08/11 04:16:10;;;;;;;2.17;1.98;;;21.10;73.40;;;;;;5095082;28;20452;-48
2021/08/11 04:18:36;;;;;;;2.67;2.10;;;21.10;73.40;;;;;;5094579;28;20492;-46
2021/08/11 04:21:02;;;;;;;2.13;1.90;;;21.10;73.40;;;;;;5094665;28;20115;-49
2021/08/11 04:23:28;;;;;;;3.03;2.03;;;21.10;73.50;;;;;;5094586;28;20431;-46
2021/08/11 04:25:54;;;;;;;1.98;1.60;;;21.10;73.50;;;;;;5094517;28;20040;-49
2021/08/11 04:28:21;;;;;;;2.95;1.85;;;21.10;73.50;;;;;;5094607;28;20044;-49
2021/08/11 04:30:46;;;;;;;2.30;2.10;;;21.10;73.50;;;;;;5094858;28;20117;-48
2021/08/11 04:33:13;;;;;;;2.85;2.25;;;21.10;73.50;;;;;;5095220;28;20492;-50
2021/08/11 04:35:39;;;;;;;2.45;2.15;;;21.10;73.50;;;;;;5094479;28;20459;-49
2021/08/11 04:38:06;;;;;;;3.05;2.15;;;21.10;73.50;;;;;;5094931;28;20044;-50
2021/08/11 04:40:34;;;;;;;2.28;1.88;;;21.10;73.50;;;;;;5094333;28;20071;-49
2021/08/11 04:43:00;;;;;;;2.50;2.25;;;21.00;73.50;;;;;;5094957;28;20115;-48
2021/08/11 04:45:25;;;;;;;2.25;2.03;;;21.10;73.50;;;;;;5094768;28;20079;-47
2021/08/11 04:47:51;;;;;;;2.47;2.00;;;21.10;73.50;;;;;;5094374;28;20048;-46
2021/08/11 04:50:17;;;;;;;2.78;2.47;;;21.10;73.50;;;;;;5094193;28;20093;-48
2021/08/11 04:52:42;;;;;;;2.78;1.88;;;21.00;73.40;;;;;;5094747;28;20044;-47
2021/08/11 04:55:09;;;;;;;2.55;2.13;;;21.10;73.50;;;;;;5093800;28;20480;-47
2021/08/11 04:57:35;;;;;;;2.00;1.80;;;21.10;73.50;;;;;;5090949;28;20505;-49
2021/08/11 05:00:02;;;;;;;2.08;1.90;;;21.10;73.50;;;;;;5093808;28;20044;-47
2021/08/11 05:02:28;;;;;;;2.63;2.00;;;21.00;73.50;;;;;;5094237;28;20416;-48
2021/08/11 05:04:54;;;;;;;2.67;2.00;;;21.10;73.60;;;;;;5093860;28;20051;-50
2021/08/11 05:07:20;;;;;;;2.38;2.17;;;21.00;73.50;;;;;;5094178;28;20122;-49
2021/08/11 05:09:45;;;;;;;2.38;2.05;;;21.00;73.50;;;;;;5093277;28;20093;-47
2021/08/11 05:12:11;;;;;;;2.50;2.10;;;21.00;73.50;;;;;;5093601;28;20048;-49
2021/08/11 05:14:37;;;;;;;2.10;1.90;;;21.00;73.50;;;;;;5094242;28;20543;-50
2021/08/11 05:17:03;;;;;;;2.65;2.40;;;21.00;73.50;;;;;;5093712;28;20040;-47
2021/08/11 05:19:29;;;;;;;2.10;1.90;;;21.10;73.50;;;;;;5092609;28;20506;-47
2021/08/11 05:21:56;;;;;;;2.78;1.90;;;21.10;73.50;;;;;;5094475;28;20118;-47
2021/08/11 05:24:21;;;;;;;2.42;2.05;;;21.00;73.50;;;;;;5093089;28;20132;-47
2021/08/11 05:26:47;;;;;;;1.83;1.60;;;21.00;73.50;;;;;;5094071;28;20044;-42
2021/08/11 05:29:15;;;;;;;2.72;2.20;;;21.00;73.50;;;;;;5092888;28;20036;-45
2021/08/11 05:31:41;;;;;;;2.60;1.88;;;21.00;73.50;;;;;;5093914;28;20068;-45
2021/08/11 05:34:07;;;;;;;2.67;1.90;;;21.00;73.50;;;;;;5093402;28;20114;-47
2021/08/11 05:36:32;;;;;;;2.38;2.08;;;21.00;73.40;;;;;;5093214;28;20048;-46
2021/08/11 05:38:58;;;;;;;2.08;1.88;;;21.00;73.40;;;;;;5093013;28;20131;-45
2021/08/11 05:41:24;;;;;;;3.78;2.10;;;21.00;73.50;;;;;;5093220;28;20078;-43
2021/08/11 05:43:49;;;;;;;2.30;2.10;;;21.00;73.40;;;;;;5092899;28;20082;-44
2021/08/11 05:46:15;;;;;;;2.90;1.98;;;21.00;73.50;;;;;;5093084;28;20123;-46
2021/08/11 05:48:42;;;;;;;2.85;1.80;;;21.00;73.50;;;;;;5092549;28;20189;-44
2021/08/11 05:51:08;;;;;;;2.20;2.00;;;21.00;73.50;;;;;;5092844;28;20036;-46
2021/08/11 05:53:34;;;;;;;2.20;1.90;;;21.00;73.50;;;;;;5092927;28;20044;-44
2021/08/11 05:55:59;;;;;;;2.10;1.90;;;21.00;73.50;;;;;;5093230;28;20469;-45
2021/08/11 05:58:25;;;;;;;3.13;2.40;;;21.00;73.50;;;;;;5092645;28;20044;-46
2021/08/11 06:00:51;;;;;;;1.73;1.63;;;21.00;73.40;;;;;;5092822;28;20105;-42
2021/08/11 06:03:17;;;;;;;2.53;2.03;;;21.00;73.50;;;;;;5093180;28;20100;-46
2021/08/11 06:05:42;;;;;;;2.05;1.80;;;21.00;73.40;;;;;;5093114;28;20070;-44
2021/08/11 06:08:08;;;;;;;2.30;2.00;;;21.00;73.50;;;;;;5092968;28;20399;-44
2021/08/11 06:10:34;;;;;;;1.98;1.70;;;21.00;73.50;;;;;;5092835;28;20111;-43
2021/08/11 06:13:00;;;;;;;2.45;2.00;;;21.00;73.50;;;;;;5093015;28;20480;-43
2021/08/11 06:15:26;;;;;;;1.90;1.70;;;21.00;73.40;;;;;;5092256;28;20060;-44
2021/08/11 06:17:52;;;;;;;2.03;1.80;;;21.00;73.40;;;;;;5092886;28;20040;-44
2021/08/11 06:20:21;;;;;;;2.13;1.88;;;21.00;74.10;;;;;;5092343;28;20125;-46
2021/08/11 06:22:47;;;;;;;2.53;2.00;;;21.00;73.40;;;;;;5092753;28;20456;-44
2021/08/11 06:25:13;;;;;;;2.47;2.00;;;21.00;73.40;;;;;;5093198;28;20071;-44
2021/08/11 06:27:39;;;;;;;2.42;1.85;;;21.00;73.40;;;;;;5093028;28;20044;-44
2021/08/11 06:30:06;;;;;;;2.15;1.73;;;21.00;73.40;;;;;;5092005;28;20101;-44
2021/08/11 06:32:32;;;;;;;2.78;2.00;;;21.00;73.40;;;;;;5092702;28;20068;-43
2021/08/11 06:34:58;;;;;;;1.65;1.55;;;21.00;73.40;;;;;;5093039;28;20106;-44
2021/08/11 06:37:24;;;;;;;2.97;2.25;;;21.00;73.40;;;;;;5092650;28;20502;-44
2021/08/11 06:39:50;;;;;;;3.45;2.03;;;21.00;73.40;;;;;;5092445;28;20040;-44
2021/08/11 06:42:15;;;;;;;2.30;2.00;;;21.00;73.40;;;;;;5092884;28;20051;-43
2021/08/11 06:44:41;;;;;;;2.50;1.77;;;21.00;73.40;;;;;;5092918;28;20083;-45
2021/08/11 06:47:07;;;;;;;2.08;1.85;;;21.00;73.40;;;;;;5091497;28;20419;-42
2021/08/11 06:49:33;;;;;;;2.42;2.08;;;21.00;73.40;;;;;;5089292;28;20039;-44
2021/08/11 06:51:59;;;;;;;2.33;2.05;;;21.00;73.30;;;;;;5090967;28;20045;-45
2021/08/11 06:54:24;;;;;;;1.90;1.80;;;21.00;73.30;;;;;;5092436;28;20079;-44
2021/08/11 06:56:50;;;;;;;2.50;1.83;;;21.00;73.30;;;;;;5092273;28;20124;-44
2021/08/11 06:59:16;;;;;;;2.17;1.95;;;21.00;73.30;;;;;;5092442;28;20545;-47
2021/08/11 07:01:42;;;;;;;2.45;1.85;;;21.00;73.30;;;;;;5091778;28;20036;-41
2021/08/11 07:04:07;;;;;;;1.85;1.65;;;21.00;73.30;;;;;;5092484;28;20138;-44
2021/08/11 07:06:33;;;;;;;1.85;1.70;;;21.00;73.30;;;;;;5092194;28;20518;-42
2021/08/11 07:08:59;;;;;;;2.33;1.95;;;21.00;73.30;;;;;;5091776;28;20036;-44
2021/08/11 07:11:25;;;;;;;11.43;5.53;;;21.00;73.30;;;;;;5091944;28;20209;-40
2021/08/11 07:13:50;;;;;;;9.88;5.65;;;21.00;73.00;;;;;;5091787;28;20442;-42
2021/08/11 07:16:17;;;;;;;9.57;6.63;;;21.10;72.50;;;;;;5091595;28;20144;-41
2021/08/11 07:18:42;;;;;;;11.48;6.32;;;21.60;72.00;;;;;;5091323;28;20047;-42
2021/08/11 07:21:09;;;;;;;9.00;6.32;;;22.60;71.10;;;;;;5091492;28;20036;-43
2021/08/11 07:23:35;;;;;;;8.73;6.40;;;23.10;69.10;;;;;;5092059;28;20096;-42
2021/08/11 07:26:01;;;;;;;10.48;6.18;;;23.30;67.70;;;;;;5092266;28;20048;-42
2021/08/11 07:28:27;;;;;;;7.88;6.00;;;23.30;67.10;;;;;;5092185;28;20054;-43
2021/08/11 07:30:52;;;;;;;8.43;5.70;;;23.20;66.70;;;;;;5091547;28;20060;-42
2021/08/11 07:33:19;;;;;;;9.10;6.35;;;23.10;66.60;;;;;;5091732;28;20048;-42
2021/08/11 07:35:44;;;;;;;6.97;4.97;;;22.90;66.70;;;;;;5092027;28;20048;-47
2021/08/11 07:38:10;;;;;;;8.55;5.85;;;22.80;66.90;;;;;;5092019;28;20050;-41
2021/08/11 07:40:38;;;;;;;7.13;5.05;;;22.70;67.00;;;;;;5091759;28;20092;-42
2021/08/11 07:43:06;;;;;;;6.80;4.93;;;22.60;67.30;;;;;;5088103;28;20492;-42
2021/08/11 07:45:32;;;;;;;6.25;4.60;;;22.50;67.60;;;;;;5092075;28;20414;-42
2021/08/11 07:47:58;;;;;;;6.78;5.15;;;22.40;67.90;;;;;;5091884;28;20130;-43
2021/08/11 07:50:27;;;;;;;7.28;4.75;;;22.30;68.20;;;;;;5091243;28;20507;-42
2021/08/11 07:52:53;;;;;;;7.47;5.00;;;22.20;68.40;;;;;;5091231;28;20050;-41
2021/08/11 07:55:19;;;;;;;6.32;4.35;;;22.10;68.70;;;;;;5091591;28;20047;-40
2021/08/11 07:57:45;;;;;;;6.45;4.47;;;22.00;68.80;;;;;;5091570;28;20491;-41
2021/08/11 08:00:13;;;;;;;6.93;4.32;;;22.00;69.10;;;;;;5091929;28;20125;-42
2021/08/11 08:02:40;;;;;;;6.03;4.20;;;22.00;69.40;;;;;;5091308;28;20091;-42
2021/08/11 08:05:06;;;;;;;7.85;4.53;;;21.90;69.50;;;;;;5091238;28;20105;-46
2021/08/11 08:07:32;;;;;;;6.88;4.75;;;21.80;69.70;;;;;;5091482;28;20048;-45
2021/08/11 08:09:58;;;;;;;5.38;4.22;;;21.80;69.90;;;;;;5091772;28;20051;-46
2021/08/11 08:12:24;;;;;;;6.47;4.38;;;21.80;70.10;;;;;;5091127;28;20479;-46
2021/08/11 08:14:50;;;;;;;6.57;4.18;;;21.70;70.20;;;;;;5091483;28;20044;-45
2021/08/11 08:17:15;;;;;;;7.00;4.25;;;21.70;70.40;;;;;;5081610;28;20093;-42
2021/08/11 08:19:41;;;;;;;6.25;4.43;;;21.70;70.50;;;;;;5073525;28;20048;-47
2021/08/11 08:22:07;;;;;;;6.25;3.78;;;21.70;70.70;;;;;;5078815;28;20062;-43
2021/08/11 08:24:33;;;;;;;5.43;3.63;;;21.70;70.80;;;;;;5090293;28;20055;-45
2021/08/11 08:27:00;;;;;;;4.80;3.45;;;21.60;70.80;;;;;;5091262;28;20492;-45
2021/08/11 08:29:26;;;;;;;4.45;3.72;;;21.60;70.90;;;;;;5091591;28;20048;-41
2021/08/11 08:31:51;;;;;;;5.43;3.90;;;21.60;71.00;;;;;;5089743;28;20428;-43
2021/08/11 08:34:17;;;;;;;5.03;3.47;;;21.60;71.10;;;;;;5091292;28;20108;-42
2021/08/11 08:36:43;;;;;;;4.15;3.50;;;21.60;71.20;;;;;;5090729;28;20064;-42
2021/08/11 08:39:08;;;;;;;6.45;3.60;;;21.60;71.20;;;;;;5090112;28;20051;-42
2021/08/11 08:41:35;;;;;;;5.40;3.55;;;21.60;71.30;;;;;;5090782;28;20055;-41
2021/08/11 08:44:02;;;;;;;4.25;3.10;;;21.60;71.30;;;;;;5091135;28;20093;-43
2021/08/11 08:46:28;;;;;;;4.45;3.70;;;21.60;71.40;;;;;;5090352;28;20051;-44
2021/08/11 08:48:56;;;;;;;3.58;3.25;;;21.60;71.40;;;;;;5091102;28;20488;-41
2021/08/11 08:51:22;;;;;;;4.95;3.17;;;21.60;71.40;;;;;;5090587;28;20048;-42
2021/08/11 08:53:49;;;;;;;4.45;2.95;;;21.60;71.40;;;;;;5090432;28;20043;-36
2021/08/11 08:56:16;;;;;;;4.60;3.20;;;21.60;71.40;;;;;;5094074;28;20056;-42
2021/08/11 08:58:42;;;;;;;3.47;2.88;;;21.60;71.50;;;;;;5094842;28;20175;-42
2021/08/11 09:01:09;;;;;;;5.75;3.30;;;21.60;71.50;;;;;;5094375;28;20051;-42
2021/08/11 09:03:35;;;;;;;3.97;3.15;;;21.60;71.50;;;;;;5094404;28;20044;-43
2021/08/11 09:06:01;;;;;;;3.70;2.88;;;21.60;71.60;;;;;;5093385;28;20532;-43
2021/08/11 09:08:28;;;;;;;3.95;2.95;;;21.60;71.60;;;;;;5094250;28;20129;-40
2021/08/11 09:10:54;;;;;;;3.78;3.22;;;21.60;71.60;;;;;;5094679;28;20062;-42
2021/08/11 09:13:22;;;;;;;4.78;3.00;;;21.60;71.70;;;;;;5094217;28;20059;-40
2021/08/11 09:15:51;;;;;;;3.33;3.00;;;21.60;71.70;;;;;;5094684;28;20043;-40
2021/08/11 09:18:19;;;;;;;3.35;2.60;;;21.60;71.80;;;;;;5094559;28;20093;-42
2021/08/11 09:20:49;;;;;;;4.03;2.83;;;21.60;71.80;;;;;;5094929;28;20078;-42
2021/08/11 09:23:35;;;;;;;3.42;2.97;;;21.60;71.70;;;;;;5093337;28;20040;-42
2021/08/11 09:26:02;;;;;;;;;;;21.60;71.70;;;;;;5094842;28;20047;-43
2021/08/11 09:28:33;;;;;;;4.35;2.83;;;21.70;71.70;;;;;;5094243;28;19920;-44
2021/08/11 09:31:00;;;;;;;3.30;2.58;;;21.60;71.70;;;;;;5094214;28;20047;-48
2021/08/11 09:33:26;;;;;;;3.78;2.55;;;21.60;71.70;;;;;;5093869;28;20052;-47
2021/08/11 09:35:53;;;;;;;4.20;2.50;;;21.60;71.70;;;;;;5093315;28;20397;-47
2021/08/11 09:38:21;;;;;;;3.15;2.45;;;21.60;71.70;;;;;;5092682;28;20130;-41
2021/08/11 09:40:48;;;;;;;3.65;3.08;;;21.70;71.80;;;;;;5093921;28;20071;-43
2021/08/11 09:43:30;;;;;;;3.58;2.47;;;21.60;71.70;;;;;;5093834;28;20094;-42
2021/08/11 09:45:56;;;;;;;3.65;2.92;;;21.70;71.80;;;;;;5094126;28;20066;-42
2021/08/11 09:48:40;;;;;;;3.00;2.42;;;21.70;71.70;;;;;;5093869;28;20051;-41
2021/08/11 09:51:07;;;;;;;3.60;2.70;;;21.70;71.70;;;;;;5094154;28;20123;-41
2021/08/11 09:53:38;;;;;;;4.03;2.70;;;21.70;71.70;;;;;;5093845;28;20048;-43
2021/08/11 09:56:11;;;;;;;3.05;2.33;;;21.70;71.60;;;;;;5093504;28;20081;-42
2021/08/11 09:58:43;;;;;;;2.97;2.67;;;21.70;71.60;;;;;;5093727;28;20439;-43
2021/08/11 10:01:11;;;;;;;3.10;2.60;;;21.80;71.60;;;;;;5093460;28;20345;-42
2021/08/11 10:03:59;;;;;;;3.15;2.17;;;21.70;71.50;;;;;;5093409;28;20040;-42
2021/08/11 10:06:29;;;;;;;2.78;2.40;;;21.80;71.50;;;;;;5093288;28;20047;-42
2021/08/11 10:09:09;;;;;;;2.65;2.35;;;21.70;71.50;;;;;;5093740;28;20116;-43
2021/08/11 10:11:40;;;;;;;3.30;2.55;;;21.80;71.50;;;;;;5092890;28;20093;-44
2021/08/11 10:14:09;;;;;;;3.13;2.42;;;21.80;71.50;;;;;;5093025;28;20047;-44
2021/08/11 10:16:36;;;;;;;2.80;2.47;;;21.80;71.50;;;;;;5093282;28;20440;-43
2021/08/11 10:19:03;;;;;;;3.97;2.65;;;21.80;71.50;;;;;;5093158;28;20060;-42
2021/08/11 10:21:33;;;;;;;3.17;2.05;;;21.90;71.50;;;;;;5093268;28;20353;-42
2021/08/11 10:24:01;;;;;;;2.63;2.30;;;21.90;71.50;;;;;;5092731;28;20051;-43
2021/08/11 10:26:30;;;;;;;2.55;2.35;;;21.90;71.50;;;;;;5092611;28;20118;-43
2021/08/11 10:28:57;;;;;;;3.10;2.22;;;21.90;71.40;;;;;;5093086;28;20349;-43
2021/08/11 10:31:23;;;;;;;2.92;2.15;;;21.90;71.40;;;;;;5092798;28;20048;-43
2021/08/11 10:33:50;;;;;;;2.92;2.40;;;21.90;71.40;;;;;;5092743;28;20101;-44
2021/08/11 10:36:17;;;;;;;2.95;2.40;;;21.90;71.40;;;;;;5092635;28;20090;-42
2021/08/11 10:38:45;;;;;;;2.25;1.95;;;21.90;71.30;;;;;;5092841;28;20105;-41
2021/08/11 10:41:11;;;;;;;2.95;2.35;;;21.90;71.30;;;;;;5092567;28;20062;-42
2021/08/11 10:43:37;;;;;;;3.10;2.30;;;22.00;71.30;;;;;;5092069;28;20047;-44
2021/08/11 10:46:06;;;;;;;3.40;2.65;;;22.00;71.30;;;;;;5086194;28;20070;-42
2021/08/11 10:48:32;;;;;;;2.28;1.75;;;22.00;71.20;;;;;;5089506;28;20052;-44
2021/08/11 10:50:59;;;;;;;3.17;2.35;;;22.00;71.20;;;;;;5092175;28;20044;-42
2021/08/11 10:53:25;;;;;;;2.97;2.13;;;22.00;71.10;;;;;;5092172;28;20500;-43
2021/08/11 10:55:52;;;;;;;2.72;2.10;;;22.00;71.10;;;;;;5091365;28;20058;-40
2021/08/11 10:58:36;;;;;;;2.53;2.00;;;22.00;71.10;;;;;;5091644;28;20079;-44
2021/08/11 11:01:03;;;;;;;2.45;2.10;;;22.00;71.10;;;;;;5090567;28;20048;-42
2021/08/11 11:03:48;;;;;;;3.08;2.40;;;22.10;71.10;;;;;;5092287;28;20051;-43
2021/08/11 11:06:14;;;;;;;3.10;2.28;;;22.10;71.10;;;;;;5090977;28;20063;-44
2021/08/11 11:08:39;;;;;;;2.50;1.70;;;22.10;71.10;;;;;;5091904;28;20360;-43
2021/08/11 11:11:28;;;;;;;2.33;1.95;;;22.10;71.00;;;;;;5092104;28;20111;-42
2021/08/11 11:13:55;;;;;;;2.58;2.08;;;22.10;71.00;;;;;;5090133;28;20055;-42
2021/08/11 11:16:21;;;;;;;3.05;2.35;;;22.10;71.00;;;;;;5091490;28;20134;-42
2021/08/11 11:19:07;;;;;;;2.17;1.98;;;22.10;70.90;;;;;;5091307;28;20119;-41
2021/08/11 11:21:33;;;;;;;3.28;2.15;;;22.10;70.90;;;;;;5090438;28;20036;-42
2021/08/11 11:24:00;;;;;;;2.13;1.90;;;22.20;70.90;;;;;;5087092;28;20475;-43
2021/08/11 11:26:33;;;;;;;2.30;1.70;;;22.20;70.80;;;;;;5088398;28;20051;-42
2021/08/11 11:29:10;;;;;;;2.70;2.13;;;22.20;70.80;;;;;;5091238;28;20097;-43
2021/08/11 11:31:53;;;;;;;2.85;2.08;;;22.20;70.80;;;;;;5089483;28;20066;-42
2021/08/11 11:34:22;;;;;;;2.42;1.70;;;22.20;70.70;;;;;;5089853;28;20094;-42
2021/08/11 11:36:54;;;;;;;2.30;2.10;;;22.20;70.70;;;;;;5091074;28;20139;-42
2021/08/11 11:39:31;;;;;;;2.47;1.95;;;22.30;70.70;;;;;;5089406;28;20135;-43
2021/08/11 11:42:08;;;;;;;2.63;2.13;;;22.30;70.70;;;;;;5089453;28;20038;-43
2021/08/11 11:44:57;;;;;;;2.20;1.85;;;22.30;70.60;;;;;;5088497;28;20048;-43
2021/08/11 11:47:35;;;;;;;2.65;2.20;;;22.30;70.60;;;;;;5087617;28;20048;-43
2021/08/11 11:52:52;;;;;;;3.65;1.90;;;22.40;70.60;;;;;;5091606;28;20067;-42
2021/08/11 11:55:36;;;;;;;2.35;2.10;;;22.40;70.50;;;;;;5088455;28;20464;-43
2021/08/11 11:58:10;;;;;;;2.40;1.70;;;22.40;70.40;;;;;;5089708;28;20048;-43
2021/08/11 12:00:37;;;;;;;2.30;2.10;;;22.40;70.40;;;;;;5088634;28;20534;-43
2021/08/11 12:03:04;;;;;;;2.40;2.10;;;22.40;70.40;;;;;;5090989;28;20054;-43
2021/08/11 12:05:46;;;;;;;2.05;1.80;;;22.40;70.30;;;;;;5091279;28;20048;-45
2021/08/11 12:08:17;;;;;;;2.10;1.90;;;22.50;70.30;;;;;;5089088;28;20072;-42
2021/08/11 12:10:45;;;;;;;2.10;1.90;;;22.40;70.30;;;;;;5091678;28;20074;-41
2021/08/11 12:13:11;;;;;;;2.13;1.70;;;22.50;70.30;;;;;;5091365;28;20067;-43
2021/08/11 12:15:42;;;;;;;1.77;1.63;;;22.50;70.30;;;;;;5090005;28;20046;-42
2021/08/11 12:18:26;;;;;;;2.05;1.77;;;22.50;70.20;;;;;;5090533;28;20048;-43
2021/08/11 12:20:54;;;;;;;2.20;1.90;;;22.50;70.10;;;;;;5089127;28;20048;-43
2021/08/11 12:23:26;;;;;;;2.00;1.77;;;22.50;70.10;;;;;;5088174;28;20389;-44
2021/08/11 12:26:07;;;;;;;2.22;1.75;;;22.60;70.10;;;;;;5089132;28;20051;-42
2021/08/11 12:28:43;;;;;;;2.50;1.90;;;22.50;70.10;;;;;;5090858;28;20048;-44
2021/08/11 12:31:16;;;;;;;2.50;1.92;;;22.60;70.10;;;;;;5091672;28;20048;-40
2021/08/11 12:33:44;;;;;;;2.28;1.88;;;22.60;70.10;;;;;;5092565;28;20046;-46
2021/08/11 12:36:21;;;;;;;2.00;1.80;;;22.60;70.10;;;;;;5094083;28;20457;-45
2021/08/11 12:39:13;;;;;;;2.15;1.83;;;22.60;70.00;;;;;;5091627;28;20090;-43
2021/08/11 12:41:44;;;;;;;1.83;1.50;;;22.60;70.00;;;;;;5092155;28;20044;-49
2021/08/11 12:44:18;;;;;;;2.13;1.80;;;22.60;70.00;;;;;;5094646;28;20055;-46
2021/08/11 12:46:43;;;;;;;2.13;1.75;;;22.60;70.00;;;;;;5091291;28;20138;-47
2021/08/11 12:49:29;;;;;;;1.60;1.50;;;22.60;70.00;;;;;;5094053;28;20118;-45
2021/08/11 12:52:04;;;;;;;2.10;1.90;;;22.60;69.90;;;;;;5094102;28;20043;-43
2021/08/11 12:55:18;;;;;;;1.92;1.60;;;22.70;69.90;;;;;;5093905;28;20253;-49
2021/08/11 12:57:46;;;;;;;1.75;1.60;;;22.70;69.90;;;;;;5061322;28;20090;-48